createdAt,value
2022-12-29T00:03:44.787Z,9.30
2022-12-29T00:07:10.157Z,9.40
2022-12-29T00:10:47.905Z,9.40
2022-12-29T00:14:09.508Z,9.50
2022-12-29T00:17:27.630Z,9.50
2022-12-29T00:21:02.775Z,9.60
2022-12-29T00:28:08.119Z,9.70
2022-12-29T00:32:09.746Z,9.80
2022-12-29T00:36:04.644Z,9.70
2022-12-29T00:39:32.807Z,9.70
2022-12-29T00:42:59.026Z,9.80
2022-12-29T00:49:54.237Z,9.90
2022-12-29T00:59:58.692Z,9.90
2022-12-29T01:06:48.711Z,9.90
2022-12-29T01:10:32.418Z,9.80
2022-12-29T01:14:15.238Z,9.70
2022-12-29T01:21:41.320Z,9.50
2022-12-29T01:25:00.368Z,9.50
2022-12-29T01:28:25.937Z,9.50
2022-12-29T01:35:10.795Z,9.50
2022-12-29T01:38:34.426Z,9.50
2022-12-29T01:42:02.216Z,9.60
2022-12-29T01:45:43.030Z,9.60
2022-12-29T01:56:48.858Z,9.60
2022-12-29T02:00:13.200Z,9.70
2022-12-29T02:03:45.936Z,9.70
2022-12-29T02:06:54.335Z,9.70
2022-12-29T02:09:25.374Z,9.70
2022-12-29T02:11:54.271Z,9.80
2022-12-29T02:14:37.962Z,9.70
2022-12-29T02:17:16.031Z,9.70
2022-12-29T02:20:18.485Z,9.80
2022-12-29T02:22:58.822Z,9.80
2022-12-29T02:25:54.449Z,9.70
2022-12-29T02:29:13.313Z,9.80
2022-12-29T02:31:48.423Z,9.80
2022-12-29T02:34:27.542Z,9.80
2022-12-29T02:37:05.587Z,9.80
2022-12-29T02:39:40.401Z,9.80
2022-12-29T02:42:14.934Z,9.80
2022-12-29T02:44:52.783Z,9.80
2022-12-29T02:47:30.698Z,9.80
2022-12-29T02:50:23.417Z,9.80
2022-12-29T02:53:21.966Z,9.80
2022-12-29T02:56:27.517Z,9.80
2022-12-29T02:59:21.534Z,9.80
2022-12-29T03:03:01.091Z,9.80
2022-12-29T03:06:53.422Z,9.70
2022-12-29T03:14:15.495Z,9.80
2022-12-29T03:17:37.250Z,9.80
2022-12-29T03:24:13.451Z,10.00
2022-12-29T03:27:40.480Z,10.00
2022-12-29T03:35:09.097Z,10.00
2022-12-29T03:38:44.686Z,10.00
2022-12-29T03:42:15.666Z,10.10
2022-12-29T03:45:41.578Z,10.00
2022-12-29T03:52:16.439Z,10.10
2022-12-29T03:56:19.198Z,10.10
2022-12-29T03:59:27.339Z,10.10
2022-12-29T04:06:14.985Z,10.10
2022-12-29T04:09:22.658Z,10.10
2022-12-29T04:23:02.364Z,10.30
2022-12-29T04:26:15.076Z,10.30
2022-12-29T04:33:58.080Z,10.30
2022-12-29T04:37:16.496Z,10.30
2022-12-29T04:40:37.027Z,10.30
2022-12-29T04:43:38.809Z,10.30
2022-12-29T04:47:25.639Z,10.30
2022-12-29T04:51:08.253Z,10.30
2022-12-29T04:54:13.781Z,10.30
2022-12-29T05:04:32.069Z,10.30
2022-12-29T05:07:44.075Z,10.30
2022-12-29T05:11:03.042Z,10.30
2022-12-29T05:18:51.074Z,10.20
2022-12-29T05:22:18.367Z,10.20
2022-12-29T05:25:34.571Z,10.10
2022-12-29T05:29:04.882Z,10.10
2022-12-29T05:32:24.229Z,10.10
2022-12-29T05:39:56.708Z,10.20
2022-12-29T05:47:18.543Z,10.30
2022-12-29T05:51:01.188Z,10.30
2022-12-29T05:58:20.966Z,10.40
2022-12-29T06:08:21.273Z,10.50
2022-12-29T06:15:33.595Z,10.60
2022-12-29T06:22:32.883Z,10.60
2022-12-29T06:25:42.078Z,10.60
2022-12-29T06:28:50.066Z,10.70
2022-12-29T06:35:56.263Z,10.70
2022-12-29T06:50:49.113Z,10.80
2022-12-29T06:54:01.671Z,10.80
2022-12-29T06:57:17.377Z,10.80
2022-12-29T07:00:29.675Z,10.80
2022-12-29T07:03:54.530Z,10.80
2022-12-29T07:07:35.488Z,10.80
2022-12-29T07:11:20.145Z,10.80
2022-12-29T07:14:58.434Z,10.80
2022-12-29T07:18:15.195Z,10.80
2022-12-29T07:21:26.953Z,10.70
2022-12-29T07:28:04.920Z,10.80
2022-12-29T07:30:33.016Z,10.90
2022-12-29T07:33:01.108Z,10.90
2022-12-29T07:35:29.153Z,10.80
2022-12-29T07:37:57.140Z,10.90
2022-12-29T07:40:25.161Z,10.70
2022-12-29T07:42:53.199Z,10.50
2022-12-29T07:45:30.954Z,10.30
2022-12-29T07:48:10.437Z,10.20
2022-12-29T07:50:38.975Z,10.10
2022-12-29T07:53:07.077Z,10.10
2022-12-29T07:55:35.232Z,10.20
2022-12-29T07:58:03.293Z,10.30
2022-12-29T08:00:32.604Z,10.40
2022-12-29T08:03:00.814Z,10.50
2022-12-29T08:05:28.947Z,10.50
2022-12-29T08:07:57.793Z,10.60
2022-12-29T08:10:26.508Z,10.50
2022-12-29T08:12:54.491Z,10.50
2022-12-29T08:15:28.592Z,10.30
2022-12-29T08:18:00.915Z,10.50
2022-12-29T08:20:29.188Z,10.10
2022-12-29T08:22:57.311Z,10.00
2022-12-29T08:25:25.433Z,10.00
2022-12-29T08:27:53.415Z,10.00
2022-12-29T08:30:21.389Z,10.10
2022-12-29T08:32:49.382Z,10.20
2022-12-29T08:35:18.829Z,10.20
2022-12-29T08:37:46.977Z,10.20
2022-12-29T08:40:15.789Z,10.20
2022-12-29T08:42:43.813Z,10.30
2022-12-29T08:45:12.174Z,10.30
2022-12-29T08:47:41.009Z,10.40
2022-12-29T08:50:09.714Z,10.40
2022-12-29T08:52:39.022Z,10.40
2022-12-29T08:55:07.745Z,10.40
2022-12-29T08:57:35.875Z,10.30
2022-12-29T09:00:10.527Z,10.30
2022-12-29T09:02:39.013Z,10.30
2022-12-29T09:05:08.205Z,10.40
2022-12-29T09:07:36.216Z,10.50
2022-12-29T09:10:07.490Z,10.60
2022-12-29T09:12:36.793Z,10.70
2022-12-29T09:15:05.649Z,10.80
2022-12-29T09:17:46.482Z,10.90
2022-12-29T09:20:15.915Z,11.00
2022-12-29T09:22:44.675Z,11.10
2022-12-29T09:25:16.199Z,11.20
2022-12-29T09:27:44.243Z,11.40
2022-12-29T09:30:15.382Z,11.40
2022-12-29T09:32:45.446Z,11.40
2022-12-29T09:35:15.021Z,11.30
2022-12-29T09:37:43.043Z,11.30
2022-12-29T09:40:25.792Z,11.30
2022-12-29T09:43:16.680Z,11.10
2022-12-29T09:45:47.380Z,11.10
2022-12-29T09:48:20.539Z,11.10
2022-12-29T09:50:52.244Z,11.10
2022-12-29T09:53:27.623Z,11.10
2022-12-29T09:56:00.072Z,11.10
2022-12-29T09:58:32.582Z,11.10
2022-12-29T10:01:04.409Z,11.10
2022-12-29T10:03:44.093Z,11.10
2022-12-29T10:06:16.459Z,11.10
2022-12-29T10:08:50.548Z,11.10
2022-12-29T10:11:30.923Z,11.10
2022-12-29T10:14:18.103Z,11.00
2022-12-29T10:16:53.263Z,11.00
2022-12-29T10:19:42.270Z,10.90
2022-12-29T10:22:22.032Z,10.80
2022-12-29T10:24:52.786Z,10.60
2022-12-29T10:27:22.517Z,10.40
2022-12-29T10:29:53.996Z,10.30
2022-12-29T10:32:31.029Z,10.10
2022-12-29T10:35:05.453Z,9.90
2022-12-29T10:37:41.459Z,9.80
2022-12-29T10:40:21.768Z,9.70
2022-12-29T10:42:54.908Z,9.70
2022-12-29T10:45:26.141Z,9.80
2022-12-29T10:47:59.735Z,9.80
2022-12-29T10:50:30.408Z,9.80
2022-12-29T10:53:02.137Z,9.80
2022-12-29T10:55:32.776Z,9.90
2022-12-29T10:58:06.819Z,10.00
2022-12-29T11:00:35.297Z,10.10
2022-12-29T11:03:33.146Z,10.30
2022-12-29T11:06:08.124Z,10.50
2022-12-29T11:08:43.303Z,10.50
2022-12-29T11:11:12.587Z,10.60
2022-12-29T11:13:51.696Z,10.70
2022-12-29T11:16:31.548Z,10.90
2022-12-29T11:19:00.181Z,10.90
2022-12-29T11:21:33.195Z,11.00
2022-12-29T11:24:02.820Z,11.00
2022-12-29T11:26:34.845Z,11.00
2022-12-29T11:29:21.860Z,11.10
2022-12-29T11:31:52.367Z,11.20
2022-12-29T11:34:22.744Z,11.20
2022-12-29T11:36:52.814Z,11.30
2022-12-29T11:39:32.221Z,11.30
2022-12-29T11:42:01.789Z,11.40
2022-12-29T11:44:38.573Z,11.40
2022-12-29T11:47:10.744Z,11.40
2022-12-29T11:49:38.777Z,11.50
2022-12-29T11:52:08.329Z,11.50
2022-12-29T11:54:39.793Z,11.40
2022-12-29T11:57:14.066Z,11.40
2022-12-29T11:59:52.250Z,11.40
2022-12-29T12:02:43.868Z,11.30
2022-12-29T12:05:31.425Z,11.20
2022-12-29T12:08:04.306Z,11.10
2022-12-29T12:10:39.547Z,11.00
2022-12-29T12:13:16.614Z,10.90
2022-12-29T12:15:56.400Z,10.90
2022-12-29T12:18:39.135Z,10.80
2022-12-29T12:21:15.025Z,10.80
2022-12-29T12:23:55.546Z,10.90
2022-12-29T12:26:30.137Z,11.00
2022-12-29T12:29:03.183Z,11.00
2022-12-29T12:31:45.880Z,11.00
2022-12-29T12:34:18.136Z,11.10
2022-12-29T12:37:09.091Z,11.10
2022-12-29T12:39:46.208Z,11.00
2022-12-29T12:42:28.142Z,11.00
2022-12-29T12:45:19.619Z,11.00
2022-12-29T12:48:02.820Z,11.00
2022-12-29T12:50:43.991Z,10.80
2022-12-29T12:53:29.010Z,10.80
2022-12-29T12:56:14.515Z,10.70
2022-12-29T12:58:46.622Z,10.80
2022-12-29T13:01:26.998Z,10.70
2022-12-29T13:04:17.946Z,10.70
2022-12-29T13:06:54.219Z,10.70
2022-12-29T13:09:44.438Z,10.80
2022-12-29T13:12:23.633Z,10.80
2022-12-29T13:15:05.437Z,10.80
2022-12-29T13:17:44.063Z,10.80
2022-12-29T13:20:22.615Z,10.80
2022-12-29T13:22:58.438Z,10.80
2022-12-29T13:25:35.769Z,10.80
2022-12-29T13:28:11.928Z,10.80
2022-12-29T13:30:45.344Z,10.80
2022-12-29T13:33:22.102Z,10.80
2022-12-29T13:36:02.800Z,10.80
2022-12-29T13:38:37.522Z,10.80
2022-12-29T13:41:10.371Z,10.80
2022-12-29T13:43:42.789Z,10.70
2022-12-29T13:46:15.193Z,10.70
2022-12-29T13:48:49.898Z,10.70
2022-12-29T13:51:27.242Z,10.60
2022-12-29T13:54:09.365Z,10.60
2022-12-29T13:56:42.018Z,10.60
2022-12-29T13:59:19.031Z,10.60
2022-12-29T14:01:55.226Z,10.60
2022-12-29T14:04:26.012Z,10.60
2022-12-29T14:07:06.685Z,10.60
2022-12-29T14:09:47.401Z,10.60
2022-12-29T14:12:27.858Z,10.50
2022-12-29T14:14:55.825Z,10.50
2022-12-29T14:17:24.241Z,10.50
2022-12-29T14:19:55.702Z,10.40
2022-12-29T14:22:33.074Z,10.30
2022-12-29T14:25:02.072Z,10.20
2022-12-29T14:27:54.849Z,10.10
2022-12-29T14:30:59.365Z,10.00
2022-12-29T14:33:30.236Z,9.80
2022-12-29T14:35:59.622Z,9.80
2022-12-29T14:38:31.863Z,9.70
2022-12-29T14:41:21.115Z,9.70
2022-12-29T14:44:01.786Z,9.70
2022-12-29T14:46:48.577Z,9.70
2022-12-29T14:49:20.994Z,9.80
2022-12-29T14:51:50.376Z,9.80
2022-12-29T14:54:50.261Z,9.80
2022-12-29T14:57:34.828Z,9.70
2022-12-29T15:00:20.201Z,9.60
2022-12-29T15:02:51.997Z,9.60
2022-12-29T15:05:31.884Z,9.50
2022-12-29T15:08:01.639Z,9.50
2022-12-29T15:10:38.168Z,9.50
2022-12-29T15:13:15.895Z,9.50
2022-12-29T15:15:43.903Z,9.60
2022-12-29T15:18:23.452Z,9.70
2022-12-29T15:20:54.988Z,9.60
2022-12-29T15:23:23.565Z,9.60
2022-12-29T15:25:57.133Z,9.60
2022-12-29T15:28:26.091Z,9.60
2022-12-29T15:30:56.539Z,9.70
2022-12-29T15:33:29.788Z,9.70
2022-12-29T15:36:04.053Z,9.70
2022-12-29T15:38:40.213Z,9.70
2022-12-29T15:41:24.473Z,9.70
2022-12-29T15:44:02.523Z,9.70
2022-12-29T15:46:32.944Z,9.70
2022-12-29T15:49:01.638Z,9.70
2022-12-29T15:51:33.330Z,9.70
2022-12-29T15:54:01.571Z,9.70
2022-12-29T15:56:33.008Z,9.70
2022-12-29T15:59:01.931Z,9.70
2022-12-29T16:01:33.306Z,9.70
2022-12-29T16:04:02.958Z,9.70
2022-12-29T16:06:33.336Z,9.70
2022-12-29T16:09:04.537Z,9.60
2022-12-29T16:11:37.724Z,9.60
2022-12-29T16:14:11.584Z,9.50
2022-12-29T16:16:43.256Z,9.60
2022-12-29T16:19:15.734Z,9.50
2022-12-29T16:21:44.716Z,9.50
2022-12-29T16:24:18.560Z,9.40
2022-12-29T16:26:53.572Z,9.40
2022-12-29T16:29:23.294Z,9.40
2022-12-29T16:32:03.792Z,9.30
2022-12-29T16:34:34.411Z,9.30
2022-12-29T16:37:04.094Z,9.30
2022-12-29T16:39:37.005Z,9.40
2022-12-29T16:42:38.162Z,9.40
2022-12-29T16:45:50.780Z,9.40
2022-12-29T16:48:21.935Z,9.50
2022-12-29T16:50:50.844Z,9.50
2022-12-29T16:53:23.191Z,9.50
2022-12-29T16:55:53.327Z,9.50
2022-12-29T16:58:25.015Z,9.60
2022-12-29T17:00:57.116Z,9.50
2022-12-29T17:03:34.354Z,9.50
2022-12-29T17:06:02.473Z,9.50
2022-12-29T17:08:30.634Z,9.50
2022-12-29T17:11:16.492Z,9.50
2022-12-29T17:13:45.860Z,9.50
2022-12-29T17:16:13.895Z,9.40
2022-12-29T17:18:41.932Z,9.40
2022-12-29T17:21:09.946Z,9.30
2022-12-29T17:23:37.943Z,9.30
2022-12-29T17:26:06.552Z,9.20
2022-12-29T17:28:34.758Z,9.20
2022-12-29T17:31:07.221Z,9.10
2022-12-29T17:33:38.275Z,9.10
2022-12-29T17:36:06.582Z,9.10
2022-12-29T17:38:37.469Z,9.20
2022-12-29T17:41:05.723Z,9.20
2022-12-29T17:43:37.113Z,9.30
2022-12-29T17:46:08.408Z,9.40
2022-12-29T17:48:36.704Z,9.40
2022-12-29T17:51:04.979Z,9.50
2022-12-29T17:53:33.049Z,9.50
2022-12-29T17:56:01.084Z,9.50
2022-12-29T17:58:31.519Z,9.60
2022-12-29T18:01:01.425Z,9.60
2022-12-29T18:03:32.574Z,9.60
2022-12-29T18:06:01.440Z,9.60
2022-12-29T18:08:29.627Z,9.60
2022-12-29T18:10:57.861Z,9.60
2022-12-29T18:13:39.005Z,9.60
2022-12-29T18:16:13.510Z,9.60
2022-12-29T18:18:43.454Z,9.60
2022-12-29T18:21:17.546Z,9.70
2022-12-29T18:23:46.019Z,9.60
2022-12-29T18:26:22.112Z,9.60
2022-12-29T18:28:53.815Z,9.50
2022-12-29T18:31:24.122Z,9.40
2022-12-29T18:33:55.211Z,9.40
2022-12-29T18:36:24.220Z,9.30
2022-12-29T18:38:53.912Z,9.20
2022-12-29T18:41:23.455Z,9.20
2022-12-29T18:43:51.995Z,9.10
2022-12-29T18:46:23.011Z,9.10
2022-12-29T18:48:53.626Z,9.10
2022-12-29T18:51:25.383Z,9.10
2022-12-29T18:53:54.242Z,9.10
2022-12-29T18:56:23.106Z,9.10
2022-12-29T18:58:51.610Z,9.00
2022-12-29T19:01:22.498Z,8.90
2022-12-29T19:03:50.677Z,9.00
2022-12-29T19:06:20.975Z,9.00
2022-12-29T19:08:48.953Z,8.90
2022-12-29T19:11:17.844Z,8.90
2022-12-29T19:13:45.895Z,8.90
2022-12-29T19:16:18.230Z,8.90
2022-12-29T19:18:53.271Z,8.90
2022-12-29T19:21:28.085Z,8.90
2022-12-29T19:23:56.050Z,9.00
2022-12-29T19:26:31.933Z,8.90
2022-12-29T19:29:01.043Z,9.00
2022-12-29T19:31:29.427Z,9.00
2022-12-29T19:33:57.644Z,9.00
2022-12-29T19:36:26.967Z,9.10
2022-12-29T19:38:55.738Z,9.10
2022-12-29T19:41:24.272Z,9.00
2022-12-29T19:43:52.350Z,9.00
2022-12-29T19:46:21.240Z,9.00
2022-12-29T19:48:50.400Z,9.00
2022-12-29T19:51:18.924Z,8.90
2022-12-29T19:53:48.413Z,8.90
2022-12-29T19:56:16.700Z,8.90
2022-12-29T19:58:47.525Z,8.90
2022-12-29T20:01:20.876Z,8.90
2022-12-29T20:03:50.093Z,8.90
2022-12-29T20:06:18.904Z,8.90
2022-12-29T20:08:49.150Z,8.90
2022-12-29T20:11:18.981Z,8.90
2022-12-29T20:13:47.862Z,8.90
2022-12-29T20:16:18.402Z,8.90
2022-12-29T20:18:47.244Z,8.90
2022-12-29T20:21:17.421Z,8.90
2022-12-29T20:23:46.933Z,8.90
2022-12-29T20:26:19.396Z,8.90
2022-12-29T20:28:47.915Z,8.90
2022-12-29T20:31:19.663Z,8.80
2022-12-29T20:33:48.458Z,8.90
2022-12-29T20:36:18.860Z,8.80
2022-12-29T20:38:48.607Z,8.80
2022-12-29T20:41:18.596Z,8.80
2022-12-29T20:43:46.711Z,8.70
2022-12-29T20:46:20.452Z,8.70
2022-12-29T20:48:49.033Z,8.70
2022-12-29T20:51:17.052Z,8.70
2022-12-29T20:53:46.352Z,8.60
2022-12-29T20:56:18.211Z,8.60
2022-12-29T20:59:25.435Z,8.60
2022-12-29T21:01:34.927Z,8.60
2022-12-29T21:04:03.151Z,8.50
2022-12-29T21:06:31.084Z,8.60
2022-12-29T21:09:00.099Z,8.60
2022-12-29T21:11:29.895Z,8.60
2022-12-29T21:14:01.031Z,8.60
2022-12-29T21:16:30.602Z,8.60
2022-12-29T21:18:58.753Z,8.60
2022-12-29T21:21:27.245Z,8.60
2022-12-29T21:23:55.943Z,8.60
2022-12-29T21:26:25.124Z,8.70
2022-12-29T21:28:54.495Z,8.70
2022-12-29T21:31:27.679Z,8.70
2022-12-29T21:33:57.307Z,8.70
2022-12-29T21:36:26.176Z,8.70
2022-12-29T21:38:55.252Z,8.80
2022-12-29T21:41:23.391Z,8.70
2022-12-29T21:44:05.953Z,8.70
2022-12-29T21:46:37.072Z,8.80
2022-12-29T21:49:08.507Z,8.80
2022-12-29T21:51:52.360Z,8.80
2022-12-29T21:54:39.391Z,8.80
2022-12-29T21:57:08.583Z,8.80
2022-12-29T21:59:53.804Z,8.70
2022-12-29T22:02:43.636Z,8.70
2022-12-29T22:05:31.165Z,8.60
2022-12-29T22:08:16.692Z,8.50
2022-12-29T22:11:04.361Z,8.40
2022-12-29T22:13:33.377Z,8.30
2022-12-29T22:16:05.463Z,8.20
2022-12-29T22:18:35.143Z,8.20
2022-12-29T22:21:05.962Z,8.10
2022-12-29T22:23:34.263Z,8.20
2022-12-29T22:26:05.130Z,8.20
2022-12-29T22:28:33.512Z,8.30
2022-12-29T22:31:01.619Z,8.30
2022-12-29T22:33:29.775Z,8.30
2022-12-29T22:35:59.099Z,8.30
2022-12-29T22:38:27.122Z,8.40
2022-12-29T22:41:00.288Z,8.40
2022-12-29T22:43:30.099Z,8.30
2022-12-29T22:46:04.176Z,8.30
2022-12-29T22:48:33.155Z,8.20
2022-12-29T22:51:02.848Z,8.20
2022-12-29T22:53:31.056Z,8.10
2022-12-29T22:56:03.775Z,8.00
2022-12-29T22:58:31.741Z,8.00
2022-12-29T23:01:00.032Z,8.00
2022-12-29T23:03:28.288Z,8.00
2022-12-29T23:05:59.715Z,8.00
2022-12-29T23:08:32.229Z,8.00
2022-12-29T23:11:00.241Z,8.00
2022-12-29T23:13:28.316Z,8.00
2022-12-29T23:15:56.671Z,8.00
2022-12-29T23:18:25.169Z,7.90
2022-12-29T23:20:53.161Z,7.90
2022-12-29T23:23:35.605Z,7.80
2022-12-29T23:26:05.220Z,7.60
2022-12-29T23:28:33.465Z,7.50
2022-12-29T23:31:01.700Z,7.40
2022-12-29T23:33:29.751Z,7.30
2022-12-29T23:35:57.731Z,7.20
2022-12-29T23:38:25.768Z,7.20
2022-12-29T23:40:53.768Z,7.00
2022-12-29T23:43:23.091Z,6.90
2022-12-29T23:45:51.508Z,6.90
2022-12-29T23:48:19.928Z,6.80
2022-12-29T23:50:47.996Z,6.80
2022-12-29T23:53:16.201Z,6.60
2022-12-29T23:55:45.326Z,6.70
2022-12-29T23:58:13.305Z,6.60
